Time;durP1;ratioP1;P1;durP2;ratioP2;P2;SDS_P1;SDS_P2;PMS_P1;PMS_P2;Temp;Humidity;BMP_temperature;BMP_pressure;BME280_temperature;BME280_humidity;BME280_pressure;Samples;Min_cycle;Max_cycle;Signal;HPM_P1;HPM_P2
2023/09/17 00:00:28;;;;;;;8.25;4.45;;;;;;;19.43;61.42;100090.38;7577928;33;40816;-79
2023/09/17 00:04:45;;;;;;;6.30;3.85;;;;;;;19.37;61.77;100094.44;7578685;33;37773;-79
2023/09/17 00:09:03;;;;;;;7.12;4.12;;;;;;;19.33;61.10;100091.50;7581344;33;37278;-80
2023/09/17 00:13:19;;;;;;;9.52;4.10;;;;;;;19.44;60.10;100092.84;7581280;33;38311;-79
2023/09/17 00:17:37;;;;;;;6.72;3.85;;;;;;;19.30;60.42;100086.66;7581218;33;39842;-80
2023/09/17 00:21:53;;;;;;;7.07;3.95;;;;;;;19.36;59.93;100077.03;7567911;33;38051;-79
2023/09/17 00:26:10;;;;;;;7.32;4.68;;;;;;;19.22;60.73;100087.44;7581226;33;36800;-80
2023/09/17 00:30:27;;;;;;;7.25;4.30;;;;;;;19.36;60.17;100085.34;7581143;33;39304;-80
2023/09/17 00:34:45;;;;;;;8.95;4.57;;;;;;;19.23;60.84;100070.53;7581065;33;39751;-79
2023/09/17 00:39:02;;;;;;;7.82;4.40;;;;;;;19.21;61.04;100064.50;7580652;33;37988;-80
2023/09/17 00:43:18;;;;;;;7.68;3.80;;;;;;;19.19;61.15;100069.53;7580958;33;37041;-80
2023/09/17 00:47:35;;;;;;;5.30;3.67;;;;;;;19.17;60.96;100073.78;7581022;33;40294;-80
2023/09/17 00:51:52;;;;;;;6.40;4.00;;;;;;;19.28;60.70;100064.84;7580761;33;40634;-80
2023/09/17 00:56:09;;;;;;;9.95;4.70;;;;;;;19.17;60.35;100076.53;7580664;33;38103;-79
2023/09/17 01:00:26;;;;;;;9.93;4.57;;;;;;;19.11;60.40;100073.12;7580787;33;37441;-79
2023/09/17 01:04:43;;;;;;;8.02;4.20;;;;;;;18.92;61.68;100065.09;7580528;33;40031;-79
2023/09/17 01:08:59;;;;;;;10.23;4.78;;;;;;;19.01;61.25;100060.41;7579533;33;41068;-79
2023/09/17 01:13:16;;;;;;;11.80;4.70;;;;;;;19.02;61.95;100063.97;7580643;33;37679;-80
2023/09/17 01:17:32;;;;;;;8.23;4.55;;;;;;;19.01;62.64;100068.72;7578663;33;36942;-79
2023/09/17 01:22:09;;;;;;;8.63;4.18;;;;;;;19.06;62.93;100065.78;7579442;33;39460;-79
2023/09/17 01:26:30;;;;;;;9.48;4.20;;;;;;;18.91;62.50;100057.97;7580438;33;40185;-79
2023/09/17 01:30:47;;;;;;;6.28;3.97;;;;;;;18.90;61.67;100067.37;7580187;33;38649;-80
2023/09/17 01:35:03;;;;;;;7.03;3.75;;;;;;;18.89;61.32;100069.31;7580597;33;37476;-79
2023/09/17 01:39:23;;;;;;;7.55;4.35;;;;;;;18.74;61.60;100065.00;7567095;33;40083;-80
2023/09/17 01:43:40;;;;;;;5.60;4.05;;;;;;;18.71;61.93;100059.31;7579909;33;39760;-80
2023/09/17 01:47:57;;;;;;;8.80;4.30;;;;;;;18.73;61.87;100057.03;7580207;33;38839;-80
2023/09/17 01:52:20;;;;;;;6.90;4.10;;;;;;;18.83;61.51;100053.22;7580237;33;36936;-80
2023/09/17 01:56:41;;;;;;;7.37;4.45;;;;;;;18.69;62.52;100051.34;7580555;33;40157;-79
2023/09/17 02:00:58;;;;;;;6.90;4.10;;;;;;;18.66;63.24;100052.00;7579967;33;39769;-80
2023/09/17 02:05:16;;;;;;;8.13;4.15;;;;;;;18.74;62.18;100051.19;7579407;33;38696;-79
2023/09/17 02:09:32;;;;;;;7.03;4.25;;;;;;;18.57;62.40;100053.91;7566807;33;36022;-80
2023/09/17 02:13:49;;;;;;;7.68;3.90;;;;;;;18.63;62.03;100046.31;7580047;33;40274;-80
2023/09/17 02:18:06;;;;;;;5.65;3.97;;;;;;;18.65;61.63;100044.84;7580062;33;39780;-78
2023/09/17 02:22:22;;;;;;;6.28;3.72;;;;;;;18.66;61.44;100046.50;7579498;33;37934;-78
2023/09/17 02:26:39;;;;;;;8.95;4.35;;;;;;;18.85;60.83;100048.19;7579462;33;38359;-80
2023/09/17 02:30:55;;;;;;;7.12;4.00;;;;;;;18.89;60.45;100038.13;7566595;33;39433;-80
2023/09/17 02:35:11;;;;;;;5.95;3.95;;;;;;;18.66;61.17;100042.91;7579649;33;39988;-80
2023/09/17 02:39:28;;;;;;;7.60;4.47;;;;;;;18.70;60.95;100041.13;7579451;33;37681;-80
2023/09/17 02:43:44;;;;;;;8.00;4.00;;;;;;;18.46;61.52;100036.03;7579434;33;36935;-80
2023/09/17 02:48:01;;;;;;;9.45;4.45;;;;;;;18.40;61.79;100029.81;7579484;33;40100;-79
2023/09/17 02:52:17;;;;;;;9.13;4.28;;;;;;;18.37;62.07;100045.06;7579094;33;39777;-80
2023/09/17 02:56:34;;;;;;;6.90;4.12;;;;;;;18.57;61.63;100037.34;7579181;33;37886;-80
2023/09/17 03:00:50;;;;;;;8.90;4.18;;;;;;;18.58;61.22;100042.56;7579185;33;37058;-79
2023/09/17 03:05:10;;;;;;;11.38;4.60;;;;;;;18.51;61.47;100042.22;7577710;33;40184;-80
2023/09/17 03:09:27;;;;;;;8.05;4.05;;;;;;;18.38;62.09;100038.44;7579021;33;39997;-80
2023/09/17 03:13:47;;;;;;;11.23;4.35;;;;;;;18.28;62.48;100035.94;7578786;33;37960;-80
2023/09/17 03:18:04;;;;;;;7.72;4.93;;;;;;;18.32;62.35;100036.94;7578569;33;37717;-80
2023/09/17 03:22:20;;;;;;;10.73;5.12;;;;;;;18.26;63.04;100043.72;7578760;33;40098;-79
2023/09/17 03:26:38;;;;;;;7.45;4.47;;;;;;;18.19;64.52;100046.12;7578532;33;40055;-80
2023/09/17 03:30:54;;;;;;;7.37;4.45;;;;;;;18.30;64.30;100039.19;7565011;33;38855;-79
2023/09/17 03:35:10;;;;;;;8.57;4.57;;;;;;;18.26;64.06;100038.19;7565370;33;37857;-80
2023/09/17 03:39:28;;;;;;;7.37;4.55;;;;;;;18.23;63.94;100033.31;7579449;33;39361;-80
2023/09/17 03:43:45;;;;;;;7.80;4.87;;;;;;;18.17;64.96;100042.84;7568474;33;40185;-79
2023/09/17 03:48:01;;;;;;;8.25;4.68;;;;;;;18.28;64.74;100046.16;7568654;33;37000;-80
2023/09/17 03:52:17;;;;;;;8.90;5.00;;;;;;;18.18;65.19;100047.25;7581499;33;37288;-79
2023/09/17 03:56:34;;;;;;;12.93;4.15;;;;;;;18.08;65.83;100053.03;7568219;33;39125;-79
2023/09/17 04:00:50;;;;;;;8.35;4.87;;;;;;;17.98;66.14;100054.09;7581020;33;39847;-79
2023/09/17 04:05:14;;;;;;;12.00;5.10;;;;;;;18.19;64.82;100052.44;7581149;33;38120;-80
2023/09/17 04:09:30;;;;;;;7.47;4.53;;;;;;;18.02;64.83;100058.69;7580427;33;37853;-80
2023/09/17 04:13:47;;;;;;;7.72;4.03;;;;;;;18.06;64.53;100047.84;7555821;33;39423;-80
2023/09/17 04:18:05;;;;;;;6.87;4.50;;;;;;;18.38;62.65;100046.72;7573565;33;39965;-79
2023/09/17 04:22:21;;;;;;;8.15;4.78;;;;;;;18.00;63.18;100044.37;7581169;33;38705;-80
2023/09/17 04:26:37;;;;;;;7.95;5.05;;;;;;;17.95;64.71;100052.78;7581397;33;36858;-79
2023/09/17 04:30:54;;;;;;;7.78;4.40;;;;;;;18.04;64.12;100071.34;7581195;33;39215;-80
2023/09/17 04:35:13;;;;;;;10.60;4.30;;;;;;;18.24;62.77;100058.97;7581152;33;40106;-80
2023/09/17 04:39:29;;;;;;;9.15;5.35;;;;;;;18.05;63.03;100059.19;7580860;33;37378;-80
2023/09/17 04:43:45;;;;;;;8.38;4.95;;;;;;;18.15;63.04;100061.69;7581027;33;37044;-80
2023/09/17 04:48:02;;;;;;;9.13;5.50;;;;;;;18.18;63.78;100069.34;7580889;33;39577;-80
2023/09/17 04:52:18;;;;;;;10.02;5.50;;;;;;;18.15;64.38;100070.75;7579847;33;40792;-79
2023/09/17 04:56:36;;;;;;;8.85;5.10;;;;;;;17.95;65.03;100072.09;7580405;33;38086;-80
2023/09/17 05:00:54;;;;;;;7.97;5.07;;;;;;;18.11;64.95;100079.97;7580755;33;37673;-80
2023/09/17 05:05:12;;;;;;;6.35;4.18;;;;;;;18.30;64.23;100083.34;7580541;33;39352;-81
2023/09/17 05:09:28;;;;;;;7.43;4.70;;;;;;;18.32;63.65;100081.09;7580611;33;41149;-79
2023/09/17 05:13:44;;;;;;;8.65;5.15;;;;;;;18.31;63.46;100084.16;7580385;33;38668;-80
2023/09/17 05:18:06;;;;;;;9.07;4.45;;;;;;;18.39;63.04;100078.69;7580507;33;37398;-80
2023/09/17 05:22:22;;;;;;;15.13;4.78;;;;;;;18.24;63.55;100092.88;7580615;33;40326;-80
2023/09/17 05:26:38;;;;;;;8.77;5.05;;;;;;;18.48;62.83;100083.44;7580290;33;39907;-80
2023/09/17 05:30:58;;;;;;;7.25;4.25;;;;;;;18.57;63.39;100089.81;7580209;33;38009;-80
2023/09/17 05:35:15;;;;;;;8.27;4.80;;;;;;;18.60;64.01;100093.88;7580362;33;37068;-68
2023/09/17 05:39:31;;;;;;;6.80;3.65;;;;;;;18.72;63.96;100100.44;7580138;33;40525;-69
2023/09/17 05:43:47;;;;;;;7.45;4.75;;;;;;;18.77;64.04;100102.25;7580224;33;40744;-69
2023/09/17 05:48:04;;;;;;;9.93;5.43;;;;;;;18.96;63.47;100110.28;7580157;33;38695;-70
2023/09/17 05:52:21;;;;;;;9.07;5.43;;;;;;;18.93;63.68;100105.41;7579638;33;37430;-68
2023/09/17 05:56:37;;;;;;;8.35;5.20;;;;;;;19.14;63.53;100113.91;7580104;33;39335;-67
2023/09/17 06:00:54;;;;;;;14.32;5.25;;;;;;;19.42;63.11;100113.62;7579697;33;39940;-84
2023/09/17 06:05:15;;;;;;;8.30;4.82;;;;;;;19.25;63.85;100117.19;7579367;33;36810;-83
2023/09/17 06:09:33;;;;;;;8.23;4.72;;;;;;;19.26;63.93;100116.06;7580179;33;37950;-82
2023/09/17 06:13:49;;;;;;;14.48;5.15;;;;;;;19.46;63.66;100109.91;7578895;33;39275;-84
2023/09/17 06:18:07;;;;;;;9.13;4.93;;;;;;;19.64;63.45;100101.63;7579869;33;39884;-85
2023/09/17 06:22:23;;;;;;;8.35;4.78;;;;;;;19.59;64.07;100110.91;7580166;33;38045;-83
2023/09/17 06:26:40;;;;;;;7.62;4.30;;;;;;;19.82;63.52;100113.53;7579699;33;37714;-84
2023/09/17 06:30:56;;;;;;;7.35;4.10;;;;;;;20.12;63.29;100116.44;7580027;33;39479;-84
2023/09/17 06:35:12;;;;;;;8.63;3.97;;;;;;;20.51;62.65;100101.50;7579825;33;40888;-82
2023/09/17 06:39:29;;;;;;;6.07;3.67;;;;;;;20.69;62.52;100102.28;7579533;33;38803;-82
2023/09/17 06:43:47;;;;;;;5.72;3.83;;;;;;;21.09;61.52;100109.41;7579643;33;37867;-83
2023/09/17 06:48:03;;;;;;;6.00;3.97;;;;;;;21.29;60.23;100108.66;7579249;33;39470;-82
2023/09/17 06:52:23;;;;;;;5.72;3.65;;;;;;;20.93;60.59;100111.97;7579442;33;39715;-72
2023/09/17 06:56:42;;;;;;;7.43;4.07;;;;;;;21.20;60.33;100116.22;7579380;33;38686;-73
2023/09/17 07:00:58;;;;;;;6.03;3.28;;;;;;;21.57;59.43;100117.28;7579287;33;36839;-72
2023/09/17 07:05:14;;;;;;;6.90;3.40;;;;;;;21.88;58.31;100118.03;7578857;33;40069;-73
2023/09/17 07:09:32;;;;;;;5.07;3.20;;;;;;;22.25;56.28;100121.75;7578934;33;40096;-72
2023/09/17 07:13:49;;;;;;;6.37;3.42;;;;;;;22.60;55.85;100126.16;7578097;33;38049;-84
2023/09/17 07:18:08;;;;;;;7.50;3.22;;;;;;;22.58;55.19;100123.69;7578973;33;37067;-83
2023/09/17 07:22:24;;;;;;;4.05;2.60;;;;;;;23.01;54.35;100115.97;7578904;33;39310;-83
2023/09/17 07:26:42;;;;;;;5.68;3.12;;;;;;;23.26;53.36;100114.00;7578666;33;40856;-73
2023/09/17 07:30:58;;;;;;;4.80;3.03;;;;;;;23.58;52.25;100119.75;7578746;33;38693;-83
2023/09/17 07:35:16;;;;;;;4.55;2.92;;;;;;;23.76;51.86;100120.28;7565113;33;37215;-80
2023/09/17 07:39:32;;;;;;;5.22;3.15;;;;;;;24.08;50.54;100115.66;7578078;33;40311;-82
2023/09/17 07:43:48;;;;;;;10.07;3.00;;;;;;;24.28;50.09;100124.13;7578222;33;40844;-82
2023/09/17 07:48:05;;;;;;;6.10;2.80;;;;;;;24.22;50.16;100131.94;7578057;33;38082;-81
2023/09/17 07:52:22;;;;;;;7.78;3.03;;;;;;;24.30;49.29;100119.84;7578211;33;37724;-82
2023/09/17 07:56:38;;;;;;;4.28;2.70;;;;;;;24.76;48.79;100115.84;7577939;33;39437;-82
2023/09/17 08:00:55;;;;;;;4.78;2.85;;;;;;;25.03;47.96;100114.13;7577900;33;39868;-81
2023/09/17 08:05:11;;;;;;;5.80;2.83;;;;;;;25.21;46.27;100117.31;7576682;33;38727;-84
2023/09/17 08:09:29;;;;;;;4.12;2.70;;;;;;;25.35;47.03;100120.47;7577715;33;38023;-84
2023/09/17 08:13:47;;;;;;;9.40;3.20;;;;;;;25.44;47.00;100112.72;7577436;33;40085;-85
2023/09/17 08:18:05;;;;;;;6.90;2.83;;;;;;;25.83;45.89;100117.50;7575015;33;39716;-85
2023/09/17 08:22:22;;;;;;;3.70;2.70;;;;;;;25.93;45.52;100121.72;7574411;33;38220;-87
2023/09/17 08:26:38;;;;;;;6.18;2.35;;;;;;;26.15;45.28;100123.78;7579026;33;37042;-82
2023/09/17 08:30:55;;;;;;;5.20;3.03;;;;;;;26.56;44.12;100118.56;7572402;33;40288;-87
2023/09/17 08:35:15;;;;;;;5.90;2.72;;;;;;;26.26;43.94;100129.56;7580279;33;40011;-85
2023/09/17 08:39:31;;;;;;;5.80;2.90;;;;;;;26.39;43.54;100117.03;7581085;33;38009;-85
2023/09/17 08:43:49;;;;;;;4.37;2.87;;;;;;;26.64;43.64;100115.91;7581323;33;36685;-80
2023/09/17 08:48:06;;;;;;;8.52;2.62;;;;;;;26.88;43.11;100112.72;7580894;33;39946;-83
2023/09/17 08:52:25;;;;;;;8.57;2.60;;;;;;;26.82;43.17;100110.59;7580687;33;40865;-84
2023/09/17 08:56:43;;;;;;;3.60;2.60;;;;;;;27.32;41.69;100106.62;7580927;33;38827;-84
2023/09/17 09:01:03;;;;;;;4.57;2.42;;;;;;;27.36;41.81;100112.28;7567678;33;36034;-83
2023/09/17 09:05:22;;;;;;;5.82;2.92;;;;;;;27.16;41.58;100111.53;7579608;33;39273;-83
2023/09/17 09:09:40;;;;;;;6.28;2.50;;;;;;;27.75;41.44;100094.37;7580858;33;40149;-85
2023/09/17 09:13:56;;;;;;;3.90;2.60;;;;;;;27.81;40.32;100095.66;7580573;33;37990;-84
2023/09/17 09:18:13;;;;;;;3.70;2.03;;;;;;;28.03;40.72;100097.53;7579280;33;37001;-85
2023/09/17 09:22:30;;;;;;;4.28;2.40;;;;;;;28.27;39.12;100093.38;7567601;33;40003;-86
2023/09/17 09:26:47;;;;;;;4.18;2.60;;;;;;;28.23;39.87;100092.53;7580427;33;40653;-85
2023/09/17 09:31:03;;;;;;;3.12;2.20;;;;;;;28.05;40.39;100086.75;7580458;33;39004;-84
2023/09/17 09:35:21;;;;;;;3.87;2.22;;;;;;;28.70;38.41;100098.63;7580539;33;38002;-85
2023/09/17 09:39:38;;;;;;;5.07;2.47;;;;;;;28.73;38.07;100091.41;7579751;33;40179;-84
2023/09/17 09:43:56;;;;;;;4.07;2.50;;;;;;;29.01;37.19;100085.22;7580461;33;40816;-82
2023/09/17 09:48:14;;;;;;;3.03;2.20;;;;;;;29.07;36.91;100088.47;7567253;33;38286;-86
2023/09/17 09:52:30;;;;;;;5.95;2.85;;;;;;;29.38;36.73;100090.69;7580490;33;36903;-82
2023/09/17 09:56:49;;;;;;;4.80;2.80;;;;;;;28.98;37.30;100086.81;7580352;33;40115;-82
2023/09/17 10:01:06;;;;;;;4.62;2.58;;;;;;;29.26;37.55;100088.22;7567286;33;40559;-84
2023/09/17 10:05:45;;;;;;;3.90;2.58;;;;;;;29.25;37.72;100080.19;7578866;33;38720;-84
2023/09/17 10:10:01;;;;;;;4.40;2.70;;;;;;;29.39;37.07;100074.66;7579048;33;37165;-83
2023/09/17 10:14:19;;;;;;;8.20;2.87;;;;;;;29.57;37.21;100072.72;7580038;33;40081;-84
2023/09/17 10:18:38;;;;;;;4.37;2.70;;;;;;;29.99;36.46;100064.06;7578819;33;39098;-84
2023/09/17 10:22:55;;;;;;;10.15;3.37;;;;;;;29.82;35.72;100062.81;7580200;33;37833;-84
2023/09/17 10:27:15;;;;;;;7.68;2.92;;;;;;;29.76;37.06;100070.81;7579739;33;37133;-84
2023/09/17 10:31:32;;;;;;;7.65;3.25;;;;;;;29.57;36.77;100067.09;7578806;33;39165;-84
2023/09/17 10:35:51;;;;;;;5.70;2.78;;;;;;;29.32;36.83;100063.38;7578304;33;40928;-83
2023/09/17 10:40:10;;;;;;;3.92;2.80;;;;;;;29.63;36.67;100063.91;7566527;33;38029;-84
2023/09/17 10:44:28;;;;;;;6.72;3.20;;;;;;;29.32;36.66;100060.56;7566689;33;36843;-84
2023/09/17 10:48:46;;;;;;;4.87;3.25;;;;;;;28.92;38.01;100056.69;7579585;33;39084;-83
2023/09/17 10:53:03;;;;;;;7.43;3.12;;;;;;;29.76;36.62;100048.34;7579552;33;39940;-84
2023/09/17 10:57:27;;;;;;;5.10;2.87;;;;;;;29.91;35.98;100050.00;7579279;33;38784;-84
2023/09/17 11:01:46;;;;;;;3.35;2.78;;;;;;;29.66;35.98;100049.09;7566342;33;37900;-84
2023/09/17 11:06:04;;;;;;;6.15;2.67;;;;;;;29.82;35.51;100035.53;7577903;33;38220;-84
2023/09/17 11:10:23;;;;;;;4.65;2.87;;;;;;;29.85;36.67;100036.72;7577878;33;39815;-83
2023/09/17 11:14:47;;;;;;;6.70;3.00;;;;;;;30.11;35.22;100041.19;7566876;33;37966;-83
2023/09/17 11:19:10;;;;;;;5.65;3.12;;;;;;;30.38;36.18;100029.63;7579280;33;38235;-83
2023/09/17 11:23:46;;;;;;;6.22;3.37;;;;;;;30.20;34.70;100041.63;7579293;33;39337;-83
2023/09/17 11:28:11;;;;;;;6.82;3.30;;;;;;;29.82;35.51;100041.16;7578622;33;40880;-84
2023/09/17 11:32:28;;;;;;;7.05;3.83;;;;;;;29.92;35.16;100036.75;7578322;33;37020;-84
2023/09/17 11:36:46;;;;;;;9.38;3.78;;;;;;;30.09;35.14;100046.41;7577246;33;37166;-83
2023/09/17 11:41:10;;;;;;;8.00;3.97;;;;;;;30.32;34.47;100054.47;7577611;33;38677;-83
2023/09/17 11:45:27;;;;;;;4.70;3.60;;;;;;;30.80;33.75;100044.84;7577957;33;40185;-82
2023/09/17 11:49:44;;;;;;;5.60;3.72;;;;;;;30.65;34.71;100033.63;7577705;33;38746;-81
2023/09/17 11:54:06;;;;;;;7.45;4.20;;;;;;;31.19;33.29;100027.13;7577081;33;37101;-84
2023/09/17 11:58:27;;;;;;;7.43;4.00;;;;;;;31.98;32.88;100015.50;7566977;33;39183;-84
2023/09/17 12:02:44;;;;;;;8.38;4.57;;;;;;;32.29;31.31;100018.50;7555375;33;39751;-84
2023/09/17 12:07:07;;;;;;;7.95;5.43;;;;;;;32.52;30.91;100010.25;7569030;33;37954;-84
2023/09/17 12:11:24;;;;;;;9.50;4.80;;;;;;;33.00;30.05;100011.44;7581761;33;37216;-84
2023/09/17 12:15:46;;;;;;;11.95;6.15;;;;;;;33.30;29.73;100005.03;7579049;33;39960;-83
2023/09/17 12:20:30;;;;;;;9.05;6.53;;;;;;;33.06;29.07;100001.25;7563508;33;39929;-84
2023/09/17 12:25:02;;;;;;;9.38;6.47;;;;;;;32.34;30.46;100001.12;7554394;33;38770;-84
2023/09/17 12:29:19;;;;;;;13.70;7.43;;;;;;;33.08;29.10;99998.84;7563073;33;38286;-81
2023/09/17 12:33:35;;;;;;;10.75;7.07;;;;;;;32.22;29.63;100001.62;7580905;33;40255;-83
2023/09/17 12:37:54;;;;;;;13.07;7.28;;;;;;;32.39;29.00;99989.41;7580141;33;40575;-81
2023/09/17 12:42:10;;;;;;;13.02;7.68;;;;;;;32.23;29.87;99980.69;7581186;33;37387;-81
2023/09/17 12:46:27;;;;;;;11.10;7.72;;;;;;;32.74;28.48;99981.88;7581057;33;38136;-82
2023/09/17 12:50:47;;;;;;;10.55;7.53;;;;;;;32.22;29.62;99982.72;7580795;33;39378;-81
2023/09/17 12:55:09;;;;;;;10.90;7.57;;;;;;;32.16;30.10;100002.09;7580755;33;39905;-83
2023/09/17 12:59:35;;;;;;;13.30;7.62;;;;;;;32.05;29.97;99981.66;7579856;33;38606;-82
2023/09/17 13:03:58;;;;;;;11.20;7.40;;;;;;;31.89;30.44;99982.12;7580375;33;37220;-83
2023/09/17 13:08:19;;;;;;;12.90;7.97;;;;;;;31.85;29.88;99972.09;7580498;33;38883;-84
2023/09/17 13:12:36;;;;;;;12.35;7.45;;;;;;;30.88;32.35;99973.28;7578374;33;40375;-82
2023/09/17 13:16:53;;;;;;;13.02;8.05;;;;;;;31.19;31.68;99970.81;7580361;33;37575;-82
2023/09/17 13:21:10;;;;;;;13.43;7.37;;;;;;;31.29;30.72;99977.59;7580670;33;37287;-82
2023/09/17 13:25:34;;;;;;;9.68;6.72;;;;;;;31.21;30.79;99966.34;7580718;33;38738;-83
2023/09/17 13:29:54;;;;;;;11.23;7.18;;;;;;;31.74;30.71;99963.72;7580597;33;39958;-80
2023/09/17 13:34:11;;;;;;;10.70;6.82;;;;;;;32.11;29.69;99968.69;7580547;33;38590;-81
2023/09/17 13:38:29;;;;;;;10.07;6.68;;;;;;;32.48;28.96;99953.06;7579823;33;37895;-84
2023/09/17 13:42:51;;;;;;;10.50;6.85;;;;;;;32.56;28.50;99954.59;7580406;33;40090;-82
2023/09/17 13:47:10;;;;;;;10.98;6.93;;;;;;;31.54;30.30;99957.78;7580379;33;40931;-81
2023/09/17 13:51:28;;;;;;;12.63;7.43;;;;;;;31.94;27.37;99949.88;7580390;33;37713;-82
2023/09/17 13:55:46;;;;;;;11.50;6.68;;;;;;;32.01;28.87;99958.25;7580033;33;37207;-83
2023/09/17 14:00:03;;;;;;;10.43;7.00;;;;;;;32.45;28.12;99956.72;7580472;33;39130;-83
2023/09/17 14:04:19;;;;;;;10.50;6.87;;;;;;;32.35;28.93;99954.78;7579597;33;39944;-84
2023/09/17 14:08:35;;;;;;;10.73;6.93;;;;;;;31.66;29.52;99950.88;7579252;33;38089;-82
2023/09/17 14:12:52;;;;;;;11.60;6.75;;;;;;;31.45;29.66;99944.91;7574284;32;38243;-82
2023/09/17 14:17:11;;;;;;;9.63;6.28;;;;;;;31.67;28.97;99944.84;7578961;33;39287;-83
2023/09/17 14:21:27;;;;;;;9.65;6.07;;;;;;;32.02;27.91;99940.16;7578862;33;39395;-85
2023/09/17 14:25:44;;;;;;;10.20;6.55;;;;;;;31.61;28.41;99947.25;7578539;33;37646;-81
2023/09/17 14:30:05;;;;;;;12.65;6.75;;;;;;;32.41;28.11;99941.84;7579631;33;37362;-82
2023/09/17 14:34:22;;;;;;;9.85;6.60;;;;;;;32.11;28.77;99928.41;7578559;33;39886;-83
2023/09/17 14:38:38;;;;;;;13.85;7.05;;;;;;;32.68;27.65;99922.25;7579389;33;40734;-83
2023/09/17 14:42:55;;;;;;;10.65;6.93;;;;;;;32.36;27.65;99929.00;7578143;33;37887;-84
2023/09/17 14:47:11;;;;;;;11.43;7.22;;;;;;;32.25;28.63;99921.84;7579115;33;37198;-83
2023/09/17 14:51:27;;;;;;;12.07;7.18;;;;;;;32.21;28.64;99921.88;7578430;33;40159;-84
2023/09/17 14:55:47;;;;;;;11.93;7.65;;;;;;;32.52;28.06;99922.78;7578614;33;39760;-84
2023/09/17 15:00:05;;;;;;;12.48;6.82;;;;;;;32.33;27.22;99918.53;7565726;33;37682;-85
2023/09/17 15:04:21;;;;;;;9.68;7.00;;;;;;;32.13;27.35;99915.53;7577971;33;37524;-82
2023/09/17 15:08:38;;;;;;;9.75;6.70;;;;;;;32.24;26.13;99915.41;7577634;33;39067;-83
2023/09/17 15:12:54;;;;;;;10.73;6.65;;;;;;;31.85;26.73;99912.91;7577020;33;40673;-83
2023/09/17 15:17:11;;;;;;;11.73;7.18;;;;;;;31.86;27.76;99912.50;7577159;33;37830;-83
2023/09/17 15:21:27;;;;;;;13.20;8.00;;;;;;;32.10;28.43;99915.53;7577547;33;37147;-82
2023/09/17 15:25:44;;;;;;;11.90;7.82;;;;;;;31.89;29.37;99922.13;7577120;33;38974;-82
2023/09/17 15:30:00;;;;;;;12.77;7.35;;;;;;;31.74;30.18;99921.44;7578160;33;40030;-81
2023/09/17 15:34:17;;;;;;;13.62;8.27;;;;;;;31.37;31.14;99920.81;7578091;33;36042;-81
2023/09/17 15:38:33;;;;;;;12.37;8.43;;;;;;;31.57;30.50;99921.12;7568180;33;37889;-80
2023/09/17 15:42:50;;;;;;;11.45;8.20;;;;;;;31.54;30.22;99913.50;7581155;33;40519;-82
2023/09/17 15:47:06;;;;;;;11.10;7.95;;;;;;;31.56;30.46;99915.91;7581124;33;39876;-84
2023/09/17 15:51:23;;;;;;;12.48;8.10;;;;;;;31.14;31.26;99909.28;7580999;33;37912;-78
2023/09/17 15:55:40;;;;;;;11.35;8.18;;;;;;;31.58;30.90;99902.22;7580550;33;37056;-80
2023/09/17 15:59:56;;;;;;;10.60;7.90;;;;;;;32.07;29.84;99900.25;7581058;33;39436;-80
2023/09/17 16:04:12;;;;;;;15.20;8.68;;;;;;;32.32;29.39;99899.22;7580596;33;39652;-81
2023/09/17 16:08:29;;;;;;;11.32;8.13;;;;;;;33.92;26.65;99902.47;7580900;33;38124;-81
2023/09/17 16:12:45;;;;;;;12.82;8.52;;;;;;;34.76;25.93;99903.41;7580723;33;37836;-81
2023/09/17 16:17:02;;;;;;;12.52;8.07;;;;;;;34.97;25.23;99911.44;7569963;33;39182;-81
2023/09/17 16:21:19;;;;;;;12.68;8.02;;;;;;;35.14;25.12;99905.84;7580800;33;40037;-81
2023/09/17 16:25:35;;;;;;;11.35;8.00;;;;;;;35.12;24.64;99906.28;7580034;33;38016;-82
2023/09/17 16:29:53;;;;;;;10.95;8.00;;;;;;;34.79;25.47;99914.66;7575709;33;37718;-80
2023/09/17 16:34:09;;;;;;;10.32;7.28;;;;;;;34.34;26.08;99920.75;7566708;33;39989;-81
2023/09/17 16:38:26;;;;;;;12.63;8.40;;;;;;;33.46;27.15;99918.88;7570176;33;40792;-80
2023/09/17 16:42:43;;;;;;;12.13;8.23;;;;;;;32.44;28.87;99923.28;7554728;33;38650;-84
2023/09/17 16:47:20;;;;;;;12.02;8.00;;;;;;;31.71;30.31;99923.06;7553975;33;37732;-84
2023/09/17 16:51:42;;;;;;;12.75;8.75;;;;;;;30.66;31.99;99930.34;7576831;33;39282;-78
2023/09/17 16:55:59;;;;;;;;;;;;;;;30.34;33.08;99931.97;7580487;33;40830;-80
2023/09/17 17:00:15;;;;;;;17.62;9.50;;;;;;;29.87;33.96;99936.81;7579427;33;38258;-79
2023/09/17 17:04:33;;;;;;;13.85;9.30;;;;;;;29.50;34.66;99937.91;7579387;33;37770;-80
2023/09/17 17:08:49;;;;;;;13.95;9.40;;;;;;;29.23;35.13;99928.19;7578879;33;39479;-80
2023/09/17 17:13:07;;;;;;;13.18;9.35;;;;;;;28.84;36.07;99941.63;7579354;33;39995;-80
2023/09/17 17:17:24;;;;;;;20.37;10.35;;;;;;;28.62;36.61;99946.31;7579084;33;37987;-82
2023/09/17 17:21:41;;;;;;;19.70;10.15;;;;;;;28.26;37.28;99959.22;7579920;33;37064;-83
2023/09/17 17:25:59;;;;;;;13.43;9.80;;;;;;;28.08;37.96;99961.91;7579456;33;40182;-83
2023/09/17 17:30:15;;;;;;;18.48;10.32;;;;;;;27.69;38.96;99968.69;7578295;33;40601;-82
2023/09/17 17:34:32;;;;;;;14.48;10.25;;;;;;;27.12;40.50;99965.19;7579272;33;37613;-81
2023/09/17 17:38:49;;;;;;;17.10;12.07;;;;;;;27.08;40.24;99956.75;7578548;33;37820;-81
2023/09/17 17:43:05;;;;;;;14.27;10.93;;;;;;;27.01;40.45;99962.25;7573994;32;40233;-81
2023/09/17 17:47:22;;;;;;;14.60;10.18;;;;;;;26.66;41.21;99963.34;7578451;33;40009;-81
2023/09/17 17:51:38;;;;;;;16.42;11.82;;;;;;;26.60;41.35;99965.66;7578809;33;38925;-81
2023/09/17 17:55:55;;;;;;;15.88;11.25;;;;;;;26.49;41.52;99975.88;7578886;33;37182;-80
2023/09/17 18:00:12;;;;;;;15.85;9.88;;;;;;;26.38;41.88;99980.47;7578682;33;40157;-82
2023/09/17 18:04:28;;;;;;;17.02;10.20;;;;;;;26.27;42.17;99985.06;7578472;33;40193;-81
2023/09/17 18:08:45;;;;;;;15.30;10.30;;;;;;;26.27;42.14;99990.66;7579067;33;37942;-81
2023/09/17 18:13:01;;;;;;;17.45;11.32;;;;;;;25.96;43.11;99995.34;7578043;33;38300;-82
2023/09/17 18:17:18;;;;;;;18.37;11.70;;;;;;;25.74;43.79;100000.47;7577653;33;39297;-81
2023/09/17 18:21:40;;;;;;;17.30;11.50;;;;;;;25.47;44.51;100014.31;7578982;33;39724;-80
2023/09/17 18:26:02;;;;;;;14.07;10.93;;;;;;;25.55;44.25;100006.09;7577530;33;37885;-81
2023/09/17 18:30:18;;;;;;;15.07;10.35;;;;;;;25.37;44.50;100009.31;7579249;33;37035;-80
2023/09/17 18:34:35;;;;;;;14.85;11.10;;;;;;;25.38;44.66;100013.72;7579260;33;39232;-80
2023/09/17 18:38:51;;;;;;;19.30;11.23;;;;;;;25.15;45.09;100026.72;7578937;33;39841;-80
2023/09/17 18:43:08;;;;;;;17.58;11.60;;;;;;;24.99;45.76;100013.66;7578746;33;38770;-80
2023/09/17 18:47:24;;;;;;;15.18;10.57;;;;;;;24.88;46.01;100024.53;7578720;33;37732;-77
2023/09/17 18:51:40;;;;;;;17.15;11.35;;;;;;;25.06;45.46;100013.81;7579060;33;40248;-79
2023/09/17 18:55:57;;;;;;;15.40;11.27;;;;;;;24.88;46.19;100032.09;7577823;33;40044;-78
2023/09/17 19:00:16;;;;;;;15.80;11.18;;;;;;;24.85;46.34;100028.09;7577378;33;37861;-79
2023/09/17 19:04:34;;;;;;;16.33;11.20;;;;;;;24.59;47.15;100034.22;7573608;32;37200;-79
2023/09/17 19:08:52;;;;;;;14.63;9.85;;;;;;;24.47;47.18;100035.06;7543510;33;47780;-81
2023/09/17 19:13:08;;;;;;;15.45;10.63;;;;;;;24.36;47.37;100043.19;7550853;33;39960;-79
2023/09/17 19:17:25;;;;;;;18.87;10.32;;;;;;;24.26;47.79;100040.91;7551588;33;38076;-80
2023/09/17 19:21:43;;;;;;;15.75;11.23;;;;;;;24.47;47.25;100039.84;7550910;33;37206;-80
2023/09/17 19:26:01;;;;;;;16.08;11.30;;;;;;;24.35;47.77;100037.97;7550881;33;40116;-80
2023/09/17 19:30:18;;;;;;;17.60;12.57;;;;;;;24.21;48.37;100046.75;7551404;33;39757;-80
2023/09/17 19:34:34;;;;;;;19.37;12.02;;;;;;;24.14;49.39;100046.56;7536414;33;37924;-80
2023/09/17 19:38:52;;;;;;;21.17;12.73;;;;;;;24.08;50.00;100045.25;7549819;33;37415;-80
2023/09/17 19:43:08;;;;;;;17.08;11.88;;;;;;;23.86;50.98;100039.06;7549843;33;39120;-77
2023/09/17 19:47:24;;;;;;;17.50;12.07;;;;;;;23.87;51.20;100043.50;7549981;33;40031;-80
2023/09/17 19:51:41;;;;;;;16.00;12.05;;;;;;;23.96;51.01;100032.19;7549763;33;37951;-80
2023/09/17 19:56:00;;;;;;;17.58;11.68;;;;;;;23.76;51.49;100025.62;7547708;33;36289;-80